createdAt,value
2023-09-22T06:38:21.213Z,75.99
2023-09-22T06:43:23.485Z,71.14
2023-09-22T06:48:54.544Z,61.58
2023-09-22T06:53:49.434Z,54.57
2023-09-22T06:58:49.350Z,55.77
2023-09-22T07:03:47.906Z,56.14
2023-09-22T07:08:42.245Z,54.64
2023-09-22T07:13:36.508Z,55.29
2023-09-22T07:18:29.113Z,57.37
2023-09-22T07:23:22.774Z,59.25
2023-09-22T07:28:17.956Z,56.89
2023-09-22T07:33:12.173Z,56.13
2023-09-22T07:38:05.064Z,57.55
2023-09-22T07:42:59.914Z,55.75
2023-09-22T07:47:54.287Z,54.17
2023-09-22T07:52:46.734Z,54.62
2023-09-22T07:57:41.286Z,52.74
2023-09-22T08:02:39.214Z,49.21
2023-09-22T08:07:35.314Z,47.98
2023-09-22T08:12:32.618Z,48.01
2023-09-22T08:17:30.198Z,45.96
2023-09-22T08:22:22.353Z,44.44
2023-09-22T08:27:17.237Z,40.85
2023-09-22T08:32:10.624Z,38.03
2023-09-22T08:37:02.906Z,38.13
2023-09-22T08:41:55.718Z,37.37
2023-09-22T08:46:49.490Z,37.32
2023-09-22T08:51:42.743Z,39.65
2023-09-22T08:56:36.999Z,37.25
2023-09-22T09:01:29.285Z,35.56
2023-09-22T09:06:22.531Z,34.71
2023-09-22T09:11:16.383Z,34.70
2023-09-22T09:16:12.041Z,35.90
2023-09-22T09:21:19.240Z,38.50
2023-09-22T09:26:11.233Z,40.50
2023-09-22T09:31:03.851Z,37.36
2023-09-22T09:35:57.898Z,35.44
2023-09-22T09:40:53.179Z,34.07
2023-09-22T09:45:51.305Z,34.45
2023-09-22T09:50:47.260Z,36.26
2023-09-22T09:55:41.229Z,37.51
2023-09-22T10:00:37.889Z,37.21
2023-09-22T10:05:33.495Z,37.48
2023-09-22T10:10:29.564Z,38.91
2023-09-22T10:15:56.807Z,38.07
2023-09-22T10:20:52.260Z,39.78
2023-09-22T10:25:46.648Z,40.83
2023-09-22T10:30:46.157Z,41.37
2023-09-22T10:35:43.937Z,41.89
2023-09-22T10:40:37.528Z,41.06
2023-09-22T10:45:32.341Z,40.93
2023-09-22T10:50:45.120Z,40.48
2023-09-22T10:55:49.060Z,40.18
2023-09-22T11:00:55.521Z,39.01
2023-09-22T11:06:10.192Z,39.44
2023-09-22T11:11:03.813Z,39.08
2023-09-22T11:16:03.548Z,38.63
2023-09-22T11:21:07.110Z,39.56
2023-09-22T11:26:03.569Z,38.34
2023-09-22T11:30:55.993Z,38.65
2023-09-22T11:35:52.630Z,37.49
2023-09-22T11:45:53.807Z,37.18
2023-09-22T11:50:57.888Z,37.01
2023-09-22T11:56:08.946Z,36.68
2023-09-22T12:01:02.561Z,36.52
2023-09-22T12:11:06.408Z,36.69
2023-09-22T12:16:00.342Z,36.83
2023-09-22T12:20:53.320Z,37.84
2023-09-22T12:25:46.700Z,38.99
2023-09-22T12:36:00.366Z,38.37
2023-09-22T12:46:01.914Z,37.88
2023-09-22T12:50:56.692Z,38.22
2023-09-22T12:55:49.516Z,37.44
2023-09-22T13:00:44.429Z,35.60
2023-09-22T13:05:36.884Z,35.26
2023-09-22T13:10:32.935Z,36.82
2023-09-22T13:15:25.013Z,36.03
2023-09-22T13:20:23.092Z,36.69
2023-09-22T13:25:16.266Z,37.00
2023-09-22T13:30:13.389Z,36.69
2023-09-22T13:35:11.517Z,35.79
2023-09-22T13:40:05.756Z,36.33
2023-09-22T13:44:59.379Z,35.76
2023-09-22T13:49:54.403Z,35.52
2023-09-22T13:54:47.782Z,36.04
2023-09-22T13:59:39.862Z,35.74
2023-09-22T14:04:34.134Z,37.26
2023-09-22T14:09:27.536Z,38.01
2023-09-22T14:14:22.884Z,39.03
2023-09-22T14:19:20.400Z,39.54
2023-09-22T14:24:15.221Z,40.10
2023-09-22T14:29:08.900Z,39.08
2023-09-22T14:34:02.200Z,40.00
2023-09-22T14:38:54.279Z,39.40
2023-09-22T14:43:47.708Z,39.55
2023-09-22T14:48:40.595Z,39.92
2023-09-22T14:53:33.770Z,40.36
2023-09-22T14:58:26.437Z,41.17
2023-09-22T15:03:23.586Z,43.35
2023-09-22T15:08:17.336Z,44.35
2023-09-22T15:13:17.607Z,44.88
2023-09-22T15:18:09.682Z,47.22
2023-09-22T15:23:01.757Z,50.05
2023-09-22T15:27:54.543Z,51.87
2023-09-22T15:32:47.320Z,56.07
2023-09-22T15:37:40.193Z,58.74
2023-09-22T15:42:33.833Z,62.28
2023-09-22T15:47:27.049Z,63.54
2023-09-22T15:52:20.263Z,64.01
2023-09-22T15:57:12.331Z,62.56
2023-09-22T16:02:09.129Z,63.50
2023-09-22T16:07:02.083Z,64.88
2023-09-22T16:11:57.200Z,64.78
2023-09-22T16:16:49.152Z,66.48
2023-09-22T16:21:41.521Z,64.52
2023-09-22T16:26:33.682Z,63.54
2023-09-22T16:31:26.740Z,63.08
2023-09-22T16:36:20.760Z,63.56
2023-09-22T16:41:12.923Z,63.58
2023-09-22T16:46:06.378Z,64.31
2023-09-22T16:50:59.252Z,64.81
2023-09-22T16:55:51.663Z,68.37
2023-09-22T17:00:43.836Z,72.94
2023-09-22T17:05:38.225Z,74.51
2023-09-22T17:23:52.125Z,85.82
2023-09-22T17:28:49.153Z,89.55
2023-09-22T17:33:44.312Z,93.08
2023-09-22T17:38:46.791Z,94.88
2023-09-22T17:43:39.926Z,97.98
2023-09-22T17:48:33.506Z,95.71
2023-09-22T17:53:51.818Z,87.62
2023-09-22T18:05:32.298Z,79.86
2023-09-22T18:15:42.580Z,78.98
2023-09-22T18:20:39.109Z,78.16
2023-09-22T18:25:32.703Z,77.92
2023-09-22T18:30:26.600Z,77.90
2023-09-22T18:35:19.160Z,78.25
2023-09-22T18:40:12.565Z,79.93
2023-09-22T18:51:49.284Z,78.95
2023-09-22T19:02:57.731Z,82.53
2023-09-22T19:07:50.208Z,82.65
2023-09-22T19:12:44.978Z,81.53
2023-09-22T19:17:40.029Z,79.93
2023-09-22T19:29:23.313Z,82.35
2023-09-22T19:34:26.396Z,80.97
2023-09-22T19:39:19.383Z,77.89
2023-09-22T19:44:19.391Z,77.64
2023-09-22T19:49:11.520Z,75.98
2023-09-22T19:54:17.941Z,73.90
2023-09-22T19:59:26.492Z,73.19
2023-09-22T20:04:26.090Z,73.52
2023-09-22T20:09:45.610Z,73.70
2023-09-22T20:14:47.551Z,74.52
2023-09-22T23:00:16.165Z,71.99
2023-09-22T23:05:12.564Z,72.04
2023-09-22T23:10:08.145Z,70.54
2023-09-22T23:15:01.529Z,70.41
2023-09-22T23:19:53.944Z,70.51
2023-09-22T23:24:47.489Z,71.18
2023-09-22T23:29:39.398Z,70.35
2023-09-22T23:34:31.501Z,70.91
2023-09-22T23:39:25.398Z,70.29
2023-09-22T23:44:18.245Z,70.54
2023-09-22T23:49:11.294Z,72.19
2023-09-22T23:54:04.221Z,71.09
2023-09-22T23:58:56.880Z,72.03
